Time;durP1;ratioP1;P1;durP2;ratioP2;P2;SDS_P1;SDS_P2;PMS_P1;PMS_P2;Temp;Humidity;BMP_temperature;BMP_pressure;BME280_temperature;BME280_humidity;BME280_pressure;Samples;Min_cycle;Max_cycle;Signal;HPM_P1;HPM_P2
2023/08/07 00:00:10;;;;;;;9.20;3.23;;;12.70;99.90;;;;;;4843666;29;20243;-80
2023/08/07 00:02:36;;;;;;;6.10;3.43;;;12.60;99.90;;;;;;4844043;29;20189;-80
2023/08/07 00:05:01;;;;;;;10.90;3.30;;;12.60;99.90;;;;;;4843360;29;20221;-82
2023/08/07 00:07:27;;;;;;;13.03;4.80;;;12.60;99.90;;;;;;4843798;29;20265;-82
2023/08/07 00:09:53;;;;;;;6.03;2.83;;;12.50;99.90;;;;;;4843387;29;20197;-80
2023/08/07 00:12:18;;;;;;;4.43;3.03;;;12.60;99.90;;;;;;4843165;29;20212;-80
2023/08/07 00:14:46;;;;;;;21.10;3.83;;;12.60;99.90;;;;;;4843872;29;20271;-80
2023/08/07 00:17:12;;;;;;;10.43;2.75;;;12.60;99.90;;;;;;4843217;29;20607;-81
2023/08/07 00:19:38;;;;;;;9.93;3.10;;;12.60;99.90;;;;;;4843823;29;20219;-81
2023/08/07 00:22:04;;;;;;;19.37;3.50;;;12.60;99.90;;;;;;4843241;29;20625;-80
2023/08/07 00:24:29;;;;;;;10.07;3.70;;;12.60;99.90;;;;;;4843308;29;20493;-79
2023/08/07 00:26:55;;;;;;;9.37;3.03;;;12.60;99.90;;;;;;4843679;29;20455;-79
2023/08/07 00:29:20;;;;;;;14.67;4.10;;;12.50;99.90;;;;;;4843424;29;20321;-80
2023/08/07 00:31:46;;;;;;;12.10;3.53;;;12.50;99.90;;;;;;4843717;29;20177;-80
2023/08/07 00:34:11;;;;;;;11.17;3.97;;;12.40;99.90;;;;;;4827223;29;20231;-80
2023/08/07 00:36:37;;;;;;;8.77;2.60;;;12.50;99.90;;;;;;4826916;29;20197;-81
2023/08/07 00:39:06;;;;;;;14.13;4.10;;;12.40;99.90;;;;;;4843479;29;20185;-81
2023/08/07 00:41:31;;;;;;;8.27;3.53;;;12.40;99.90;;;;;;4843645;29;20189;-82
2023/08/07 00:43:57;;;;;;;13.53;3.50;;;12.40;99.90;;;;;;4826649;29;20268;-81
2023/08/07 00:46:23;;;;;;;5.80;2.87;;;12.30;99.90;;;;;;4842808;29;20237;-82
2023/08/07 00:48:49;;;;;;;14.43;4.25;;;12.30;99.90;;;;;;4843089;29;20527;-81
2023/08/07 00:51:15;;;;;;;13.47;4.87;;;12.30;99.90;;;;;;4842705;29;20234;-81
2023/08/07 00:53:41;;;;;;;10.10;2.95;;;12.20;99.90;;;;;;4842980;29;20216;-82
2023/08/07 00:56:07;;;;;;;10.57;2.90;;;12.20;99.90;;;;;;4844695;29;20188;-82
2023/08/07 00:58:33;;;;;;;9.27;3.50;;;12.20;99.90;;;;;;4847285;29;20192;-80
2023/08/07 01:00:59;;;;;;;10.07;2.92;;;12.20;99.90;;;;;;4846922;29;20445;-82
2023/08/07 01:03:25;;;;;;;6.27;3.70;;;12.20;99.90;;;;;;4846745;29;20199;-82
2023/08/07 01:05:50;;;;;;;17.77;3.60;;;12.20;99.90;;;;;;4847026;29;20181;-80
2023/08/07 01:08:16;;;;;;;8.80;3.50;;;12.20;99.90;;;;;;4846457;29;20177;-81
2023/08/07 01:10:55;;;;;;;9.25;3.90;;;12.20;99.90;;;;;;4847228;29;20177;-80
2023/08/07 01:13:30;;;;;;;10.95;3.45;;;12.20;99.90;;;;;;4846863;29;20216;-80
2023/08/07 01:16:02;;;;;;;8.30;3.83;;;12.30;99.90;;;;;;4846980;29;20188;-80
2023/08/07 01:18:29;;;;;;;13.13;3.80;;;12.40;99.90;;;;;;4846567;29;20279;-81
2023/08/07 01:20:55;;;;;;;18.55;5.22;;;12.40;99.90;;;;;;4830135;29;20189;-80
2023/08/07 01:23:20;;;;;;;11.13;4.63;;;12.50;99.90;;;;;;4846276;29;20188;-80
2023/08/07 01:25:46;;;;;;;14.40;4.10;;;12.50;99.90;;;;;;4846769;29;20260;-80
2023/08/07 01:28:21;;;;;;;14.83;3.63;;;12.50;99.90;;;;;;4846751;29;20251;-80
2023/08/07 01:30:52;;;;;;;9.40;3.30;;;12.60;99.90;;;;;;4846655;29;20212;-82
2023/08/07 01:33:56;;;;;;;9.15;4.05;;;12.60;99.90;;;;;;4846726;29;20197;-80
2023/08/07 01:36:24;;;;;;;11.38;3.65;;;12.60;99.90;;;;;;4840546;29;20260;-80
2023/08/07 01:38:50;;;;;;;13.20;3.95;;;12.60;99.90;;;;;;4846500;29;20613;-80
2023/08/07 01:41:16;;;;;;;7.57;3.53;;;12.60;99.90;;;;;;4830014;29;20192;-80
2023/08/07 01:43:42;;;;;;;19.43;4.37;;;12.60;99.90;;;;;;4846606;29;20446;-80
2023/08/07 01:46:07;;;;;;;12.83;3.63;;;12.60;99.90;;;;;;4846071;29;20241;-80
2023/08/07 01:48:33;;;;;;;7.30;4.10;;;12.70;99.90;;;;;;4847046;29;20515;-79
2023/08/07 01:50:58;;;;;;;9.53;2.53;;;12.70;99.90;;;;;;4846443;29;20301;-80
2023/08/07 01:53:24;;;;;;;8.40;3.10;;;12.70;99.90;;;;;;4845875;29;20220;-80
2023/08/07 01:55:50;;;;;;;6.50;2.70;;;12.70;99.90;;;;;;4846174;29;20216;-81
2023/08/07 01:58:15;;;;;;;13.03;3.60;;;12.70;99.90;;;;;;4829566;29;20284;-80
2023/08/07 02:00:41;;;;;;;16.27;2.90;;;12.70;99.90;;;;;;4846334;29;20638;-79
2023/08/07 02:03:06;;;;;;;10.40;2.90;;;12.70;99.90;;;;;;4846532;29;20185;-79
2023/08/07 02:05:32;;;;;;;9.37;3.40;;;12.70;99.90;;;;;;4846695;29;20658;-79
2023/08/07 02:07:57;;;;;;;11.50;2.87;;;12.70;99.90;;;;;;4844880;29;20560;-79
2023/08/07 02:10:23;;;;;;;8.13;3.40;;;12.80;99.90;;;;;;4845583;29;20625;-79
2023/08/07 02:12:49;;;;;;;10.87;3.37;;;12.80;99.90;;;;;;4829731;29;20243;-79
2023/08/07 02:15:15;;;;;;;11.15;4.07;;;12.80;99.90;;;;;;4846094;29;20193;-79
2023/08/07 02:17:41;;;;;;;9.00;2.80;;;12.80;99.90;;;;;;4845693;29;20726;-83
2023/08/07 02:20:07;;;;;;;12.00;3.60;;;12.90;99.90;;;;;;4845968;29;20181;-83
2023/08/07 02:22:32;;;;;;;9.00;3.07;;;12.90;99.90;;;;;;4844993;29;20521;-83
2023/08/07 02:24:58;;;;;;;11.20;4.20;;;12.90;99.90;;;;;;4825792;29;20990;-82
2023/08/07 02:27:24;;;;;;;13.27;4.57;;;12.90;99.90;;;;;;4827080;29;20272;-82
2023/08/07 02:29:50;;;;;;;10.40;2.93;;;12.90;99.90;;;;;;4825599;29;20182;-82
2023/08/07 02:32:16;;;;;;;7.33;2.33;;;12.90;99.90;;;;;;4826653;29;20200;-82
2023/08/07 02:34:42;;;;;;;12.40;2.90;;;12.90;99.90;;;;;;4826638;29;20765;-81
2023/08/07 02:37:08;;;;;;;8.33;3.30;;;12.90;99.90;;;;;;4826871;29;20276;-80
2023/08/07 02:39:33;;;;;;;4.53;2.57;;;13.00;99.90;;;;;;4826941;29;20416;-80
2023/08/07 02:41:59;;;;;;;8.33;2.40;;;13.00;99.90;;;;;;4827187;29;20185;-80
2023/08/07 02:44:24;;;;;;;7.00;2.47;;;13.00;99.90;;;;;;4826546;29;20211;-81
2023/08/07 02:46:50;;;;;;;5.97;3.10;;;13.00;99.90;;;;;;4827089;29;20200;-81
2023/08/07 02:49:15;;;;;;;10.57;2.90;;;13.00;99.90;;;;;;4810366;29;20538;-79
2023/08/07 02:51:41;;;;;;;7.63;2.83;;;12.90;99.90;;;;;;4826992;29;20220;-81
2023/08/07 02:54:07;;;;;;;8.70;3.50;;;12.90;99.90;;;;;;4826810;29;20213;-85
2023/08/07 02:56:32;;;;;;;10.30;4.17;;;12.90;99.90;;;;;;4829693;29;20181;-81
2023/08/07 02:58:59;;;;;;;9.63;3.87;;;13.00;99.90;;;;;;4828660;29;20189;-81
2023/08/07 03:01:24;;;;;;;10.07;2.80;;;12.90;99.90;;;;;;4844691;29;20505;-81
2023/08/07 03:03:50;;;;;;;9.13;2.90;;;13.00;99.90;;;;;;4844953;29;20593;-79
2023/08/07 03:06:16;;;;;;;8.23;3.37;;;12.90;99.90;;;;;;4845106;29;20323;-81
2023/08/07 03:08:42;;;;;;;10.83;2.73;;;12.90;99.90;;;;;;4844823;29;20192;-79
2023/08/07 03:11:08;;;;;;;13.15;2.70;;;12.90;99.90;;;;;;4828498;29;20181;-84
2023/08/07 03:13:33;;;;;;;5.40;2.60;;;12.80;99.90;;;;;;4828742;29;20678;-79
2023/08/07 03:16:05;;;;;;;9.30;3.50;;;12.80;99.90;;;;;;4844957;29;20208;-81
2023/08/07 03:18:31;;;;;;;5.53;2.80;;;12.70;99.90;;;;;;4827921;29;20189;-81
2023/08/07 03:20:57;;;;;;;7.40;2.90;;;12.70;99.90;;;;;;4826505;29;20584;-80
2023/08/07 03:23:23;;;;;;;7.70;2.70;;;12.60;99.90;;;;;;4826200;29;20908;-80
2023/08/07 03:25:50;;;;;;;12.73;3.23;;;12.60;99.90;;;;;;4821686;29;20483;-81
2023/08/07 03:28:16;;;;;;;9.05;3.95;;;12.60;99.90;;;;;;4826697;29;20430;-81
2023/08/07 03:30:42;;;;;;;10.77;2.80;;;12.70;99.90;;;;;;4826957;29;20197;-80
2023/08/07 03:33:09;;;;;;;10.98;4.18;;;12.60;99.90;;;;;;4825541;29;20239;-80
2023/08/07 03:35:34;;;;;;;9.03;3.70;;;12.60;99.90;;;;;;4826527;29;20182;-80
2023/08/07 03:38:00;;;;;;;7.73;3.10;;;12.60;99.90;;;;;;4826538;29;20235;-79
2023/08/07 03:40:25;;;;;;;13.13;3.00;;;12.60;99.90;;;;;;4826847;29;20403;-81
2023/08/07 03:42:51;;;;;;;5.20;2.67;;;12.60;99.90;;;;;;4826223;29;20254;-83
2023/08/07 03:45:16;;;;;;;7.70;3.60;;;12.70;99.90;;;;;;4825724;29;20200;-80
2023/08/07 03:47:42;;;;;;;7.77;3.03;;;12.70;99.90;;;;;;4825999;29;20182;-80
2023/08/07 03:50:08;;;;;;;6.57;3.00;;;12.60;99.90;;;;;;4826401;29;20178;-80
2023/08/07 03:52:33;;;;;;;7.77;3.03;;;12.60;99.90;;;;;;4826107;29;20185;-82
2023/08/07 03:54:59;;;;;;;10.27;3.33;;;12.50;99.90;;;;;;4825781;29;20185;-81
2023/08/07 03:57:25;;;;;;;7.77;3.50;;;12.40;99.90;;;;;;4826008;29;20657;-80
2023/08/07 03:59:50;;;;;;;5.93;2.77;;;12.40;99.90;;;;;;4825924;29;20177;-80
2023/08/07 04:02:16;;;;;;;7.13;3.07;;;12.40;99.90;;;;;;4825896;29;20427;-81
2023/08/07 04:04:41;;;;;;;14.93;3.73;;;12.30;99.90;;;;;;4825970;29;20181;-81
2023/08/07 04:07:07;;;;;;;7.40;3.63;;;12.40;99.90;;;;;;4826367;29;20269;-80
2023/08/07 04:09:33;;;;;;;9.47;3.67;;;12.30;99.90;;;;;;4825770;29;20564;-81
2023/08/07 04:11:59;;;;;;;7.83;3.77;;;12.30;99.90;;;;;;4825738;29;20438;-80
2023/08/07 04:14:24;;;;;;;6.27;3.77;;;12.30;99.90;;;;;;4825690;29;20312;-80
2023/08/07 04:16:50;;;;;;;9.40;4.20;;;12.30;99.90;;;;;;4826023;29;20532;-79
2023/08/07 04:19:16;;;;;;;13.95;4.60;;;12.30;99.90;;;;;;4825928;29;20181;-79
2023/08/07 04:21:41;;;;;;;12.90;4.30;;;12.20;99.90;;;;;;4826399;29;20680;-79
2023/08/07 04:24:11;;;;;;;13.00;4.23;;;12.30;99.90;;;;;;4827682;29;20271;-80
2023/08/07 04:26:37;;;;;;;10.47;3.90;;;12.30;99.90;;;;;;4843620;29;20196;-79
2023/08/07 04:29:03;;;;;;;10.52;3.75;;;12.20;99.90;;;;;;4844382;29;20425;-78
2023/08/07 04:31:31;;;;;;;6.83;4.00;;;12.20;99.90;;;;;;4843445;29;20266;-80
2023/08/07 04:33:57;;;;;;;11.50;4.00;;;12.20;99.90;;;;;;4844180;29;20677;-80
2023/08/07 04:36:23;;;;;;;8.37;4.00;;;12.20;99.90;;;;;;4844019;29;20741;-80
2023/08/07 04:38:50;;;;;;;7.87;3.40;;;12.20;99.90;;;;;;4843508;29;20509;-80
2023/08/07 04:41:15;;;;;;;14.10;4.35;;;12.20;99.90;;;;;;4843796;29;20200;-81
2023/08/07 04:43:42;;;;;;;11.63;4.07;;;12.20;99.90;;;;;;4827830;29;20189;-79
2023/08/07 04:46:09;;;;;;;14.68;4.65;;;12.20;99.90;;;;;;4843674;29;20185;-79
2023/08/07 04:48:35;;;;;;;9.30;4.53;;;12.10;99.90;;;;;;4843798;29;20564;-79
2023/08/07 04:51:01;;;;;;;12.90;4.80;;;12.20;99.90;;;;;;4843559;29;20196;-80
2023/08/07 04:53:27;;;;;;;13.35;3.92;;;12.10;99.90;;;;;;4826708;29;20216;-80
2023/08/07 04:55:53;;;;;;;10.03;3.90;;;12.20;99.90;;;;;;4843777;29;20526;-79
2023/08/07 04:58:18;;;;;;;8.50;3.80;;;12.20;99.90;;;;;;4843711;29;20672;-80
2023/08/07 05:00:44;;;;;;;7.03;3.20;;;12.20;99.90;;;;;;4843927;29;20270;-78
2023/08/07 05:03:10;;;;;;;7.53;3.50;;;12.20;99.90;;;;;;4843653;29;20195;-79
2023/08/07 05:05:35;;;;;;;9.33;4.00;;;12.20;99.90;;;;;;4843575;29;20189;-80
2023/08/07 05:08:01;;;;;;;12.23;3.60;;;12.20;99.90;;;;;;4844120;29;20185;-81
2023/08/07 05:10:27;;;;;;;6.90;2.83;;;12.20;99.90;;;;;;4811855;29;20195;-79
2023/08/07 05:12:55;;;;;;;10.80;3.20;;;12.20;99.90;;;;;;4843657;29;20219;-79
2023/08/07 05:15:25;;;;;;;14.27;3.92;;;12.30;99.90;;;;;;4842925;29;20665;-81
2023/08/07 05:17:51;;;;;;;9.55;3.42;;;12.30;99.90;;;;;;4843303;29;20189;-80
2023/08/07 05:20:17;;;;;;;10.27;3.72;;;12.30;99.90;;;;;;4843254;29;20196;-81
2023/08/07 05:22:44;;;;;;;12.23;4.00;;;12.30;99.90;;;;;;4844048;29;20505;-80
2023/08/07 05:25:11;;;;;;;6.72;3.47;;;12.40;99.90;;;;;;4824095;29;20329;-79
2023/08/07 05:27:36;;;;;;;5.97;4.17;;;12.30;99.90;;;;;;4825506;29;20201;-80
2023/08/07 05:30:02;;;;;;;10.07;3.40;;;12.40;99.90;;;;;;4824897;29;20426;-81
2023/08/07 05:32:28;;;;;;;5.18;3.47;;;12.50;99.90;;;;;;4824687;29;20181;-79
2023/08/07 05:34:54;;;;;;;6.60;3.03;;;12.40;99.90;;;;;;4824487;29;20205;-80
2023/08/07 05:37:19;;;;;;;9.73;3.50;;;12.50;99.90;;;;;;4824838;29;20302;-80
2023/08/07 05:39:45;;;;;;;10.80;3.47;;;12.50;99.90;;;;;;4825116;29;20204;-80
2023/08/07 05:42:12;;;;;;;11.40;3.27;;;12.50;99.90;;;;;;4826535;29;20523;-80
2023/08/07 05:44:37;;;;;;;7.60;3.67;;;12.50;99.90;;;;;;4828181;29;20639;-80
2023/08/07 05:47:04;;;;;;;9.80;3.47;;;12.50;99.90;;;;;;4828476;29;20431;-80
2023/08/07 05:49:29;;;;;;;9.43;3.20;;;12.50;99.90;;;;;;4827995;29;20177;-81
2023/08/07 05:51:55;;;;;;;9.07;2.83;;;12.50;99.90;;;;;;4828617;29;20471;-80
2023/08/07 05:54:21;;;;;;;9.80;2.70;;;12.60;99.90;;;;;;4829070;29;20470;-81
2023/08/07 05:56:46;;;;;;;10.87;2.53;;;12.60;99.90;;;;;;4830229;29;20260;-83
2023/08/07 05:59:12;;;;;;;7.67;3.90;;;12.60;99.90;;;;;;4828342;29;20190;-81
2023/08/07 06:01:38;;;;;;;5.50;3.23;;;12.60;99.90;;;;;;4827613;29;20197;-80
2023/08/07 06:04:03;;;;;;;10.73;3.57;;;12.50;99.90;;;;;;4828152;29;20267;-81
2023/08/07 06:06:29;;;;;;;7.90;5.43;;;12.50;99.90;;;;;;4827934;29;20208;-81
2023/08/07 06:08:55;;;;;;;7.87;2.90;;;12.50;99.90;;;;;;4826922;29;20185;-80
2023/08/07 06:11:21;;;;;;;8.33;3.63;;;12.30;99.90;;;;;;4826497;29;20185;-81
2023/08/07 06:13:46;;;;;;;6.83;2.87;;;12.30;99.90;;;;;;4827880;29;20481;-80
2023/08/07 06:16:12;;;;;;;7.07;3.13;;;12.20;99.90;;;;;;4827233;29;20546;-80
2023/08/07 06:18:38;;;;;;;7.50;3.87;;;12.20;99.90;;;;;;4827113;29;20185;-82
2023/08/07 06:21:06;;;;;;;17.10;4.57;;;12.20;99.90;;;;;;4827434;29;20197;-83
2023/08/07 06:23:32;;;;;;;9.95;4.15;;;12.10;99.90;;;;;;4827470;29;20250;-83
2023/08/07 06:25:58;;;;;;;9.70;3.60;;;12.10;99.90;;;;;;4826122;29;20244;-85
2023/08/07 06:28:23;;;;;;;10.20;4.07;;;12.10;99.90;;;;;;4827331;29;20193;-83
2023/08/07 06:30:49;;;;;;;10.90;3.80;;;12.00;99.90;;;;;;4827261;29;20217;-82
2023/08/07 06:33:14;;;;;;;10.50;4.17;;;12.00;99.90;;;;;;4827176;29;20220;-82
2023/08/07 06:35:42;;;;;;;6.60;3.20;;;12.00;99.90;;;;;;4826898;29;20220;-82
2023/08/07 06:38:08;;;;;;;9.77;5.50;;;12.00;99.90;;;;;;4827394;29;20178;-85
2023/08/07 06:40:35;;;;;;;8.80;3.63;;;12.00;99.90;;;;;;4826821;29;20188;-83
2023/08/07 06:43:00;;;;;;;10.75;3.95;;;12.00;99.90;;;;;;4827632;29;20189;-88
2023/08/07 06:45:26;;;;;;;7.10;3.40;;;12.00;99.90;;;;;;4826578;29;20627;-87
2023/08/07 06:47:52;;;;;;;7.93;4.30;;;12.00;99.90;;;;;;4826768;29;20620;-86
2023/08/07 06:50:20;;;;;;;15.23;3.67;;;12.00;99.90;;;;;;4826818;29;20181;-88
2023/08/07 06:52:45;;;;;;;13.77;4.20;;;12.00;99.90;;;;;;4826981;29;20278;-88
2023/08/07 06:55:11;;;;;;;9.63;3.97;;;12.00;99.90;;;;;;4825571;29;20182;-86
2023/08/07 06:57:37;;;;;;;10.13;4.30;;;12.10;99.90;;;;;;4826914;29;20198;-87
2023/08/07 07:00:03;;;;;;;4.97;3.60;;;12.10;99.90;;;;;;4826000;29;20185;-87
2023/08/07 07:02:29;;;;;;;12.30;5.72;;;12.10;99.90;;;;;;4825455;29;20209;-86
2023/08/07 07:04:55;;;;;;;18.97;5.17;;;12.10;99.90;;;;;;4827115;29;20238;-84
2023/08/07 07:07:21;;;;;;;10.38;5.22;;;12.10;99.90;;;;;;4826845;29;20626;-86
2023/08/07 07:09:46;;;;;;;9.63;4.40;;;12.10;99.90;;;;;;4826987;29;20208;-88
2023/08/07 07:12:12;;;;;;;18.30;5.00;;;12.10;99.90;;;;;;4826462;29;20194;-87
2023/08/07 07:14:37;;;;;;;10.57;4.63;;;12.10;99.90;;;;;;4825850;29;20213;-85
2023/08/07 07:17:03;;;;;;;10.20;5.20;;;12.10;99.90;;;;;;4810198;29;20189;-86
2023/08/07 07:19:29;;;;;;;13.27;6.20;;;12.00;99.90;;;;;;4826436;29;20197;-86
2023/08/07 07:21:55;;;;;;;11.20;5.77;;;12.10;99.90;;;;;;4826696;29;20176;-85
2023/08/07 07:24:20;;;;;;;10.00;4.67;;;12.10;99.90;;;;;;4830170;29;20225;-85
2023/08/07 07:26:46;;;;;;;11.10;5.20;;;12.10;99.90;;;;;;4844637;29;20914;-84
2023/08/07 07:29:11;;;;;;;6.50;3.43;;;12.20;99.90;;;;;;4828230;29;20180;-86
2023/08/07 07:31:37;;;;;;;10.33;3.87;;;12.20;99.90;;;;;;4844401;29;20706;-86
2023/08/07 07:34:03;;;;;;;9.70;4.10;;;12.30;99.90;;;;;;4844675;29;20668;-84
2023/08/07 07:36:29;;;;;;;7.23;3.30;;;12.30;99.90;;;;;;4844408;29;20180;-86
2023/08/07 07:38:54;;;;;;;10.70;3.60;;;12.40;99.90;;;;;;4844418;29;20185;-85
2023/08/07 07:41:22;;;;;;;11.40;5.30;;;12.40;99.90;;;;;;4844401;29;20237;-87
2023/08/07 07:43:48;;;;;;;9.13;4.25;;;12.40;99.90;;;;;;4844634;29;20204;-86
2023/08/07 07:46:13;;;;;;;12.53;4.63;;;12.40;99.90;;;;;;4844125;29;20188;-85
2023/08/07 07:48:39;;;;;;;8.43;4.00;;;12.40;99.90;;;;;;4827903;29;20181;-86
2023/08/07 07:51:04;;;;;;;6.93;3.90;;;12.50;99.90;;;;;;4844580;29;20233;-86
2023/08/07 07:53:31;;;;;;;19.37;3.90;;;12.50;99.90;;;;;;4845111;29;20209;-88
2023/08/07 07:55:56;;;;;;;8.03;4.27;;;12.60;99.90;;;;;;4828523;29;20188;-88
2023/08/07 07:58:23;;;;;;;11.13;3.70;;;12.60;99.90;;;;;;4845343;29;20454;-89
2023/08/07 08:00:48;;;;;;;9.95;3.20;;;12.80;99.90;;;;;;4844887;29;20185;-87
2023/08/07 08:03:14;;;;;;;9.40;3.10;;;12.80;99.90;;;;;;4827514;29;20195;-84
2023/08/07 08:05:40;;;;;;;16.43;3.50;;;12.90;99.90;;;;;;4827718;29;20185;-85
2023/08/07 08:08:09;;;;;;;8.97;3.07;;;13.00;99.90;;;;;;4843606;29;20181;-85
2023/08/07 08:10:35;;;;;;;8.77;2.83;;;13.10;99.90;;;;;;4843515;29;20212;-86
2023/08/07 08:13:03;;;;;;;9.30;3.10;;;13.20;99.90;;;;;;4828271;29;20656;-88
2023/08/07 08:15:29;;;;;;;9.17;3.20;;;13.20;99.90;;;;;;4844758;29;20184;-85
2023/08/07 08:17:55;;;;;;;4.20;3.20;;;13.30;99.90;;;;;;4844001;29;20434;-85
2023/08/07 08:20:20;;;;;;;12.70;3.30;;;13.30;99.90;;;;;;4844329;29;20760;-87
2023/08/07 08:22:46;;;;;;;6.53;3.50;;;13.40;99.90;;;;;;4828203;29;20661;-88
2023/08/07 08:25:12;;;;;;;7.57;2.90;;;13.40;99.90;;;;;;4824656;29;20259;-85
2023/08/07 08:27:39;;;;;;;9.77;3.63;;;13.40;99.90;;;;;;4825571;29;20264;-87
2023/08/07 08:30:05;;;;;;;9.10;3.10;;;13.40;99.90;;;;;;4825441;29;20920;-86
2023/08/07 08:32:30;;;;;;;4.70;2.03;;;13.50;99.90;;;;;;4825235;29;20422;-86
2023/08/07 08:34:56;;;;;;;11.90;3.37;;;13.50;99.90;;;;;;4825563;29;20775;-86
2023/08/07 08:37:22;;;;;;;11.10;4.17;;;13.60;99.90;;;;;;4825749;29;20688;-87
2023/08/07 08:39:48;;;;;;;5.53;2.80;;;13.70;99.90;;;;;;4824440;29;20238;-88
2023/08/07 08:42:15;;;;;;;8.03;3.57;;;13.80;99.90;;;;;;4825972;29;20900;-86
2023/08/07 08:44:48;;;;;;;8.17;2.80;;;13.90;99.90;;;;;;4826424;29;20514;-83
2023/08/07 08:47:15;;;;;;;9.47;3.23;;;14.00;99.90;;;;;;4825501;29;20521;-85
2023/08/07 08:49:47;;;;;;;5.40;2.37;;;14.20;99.90;;;;;;4824322;29;20988;-87
2023/08/07 08:52:14;;;;;;;8.27;3.03;;;14.30;99.90;;;;;;4824771;29;20446;-83
2023/08/07 08:54:43;;;;;;;7.10;3.30;;;14.40;99.90;;;;;;4825003;29;20478;-85
2023/08/07 08:57:11;;;;;;;9.07;2.73;;;14.40;99.90;;;;;;4825257;29;20458;-84
2023/08/07 08:59:36;;;;;;;6.50;2.70;;;14.50;99.90;;;;;;4825264;29;20422;-83
2023/08/07 09:02:03;;;;;;;4.50;2.73;;;14.50;99.90;;;;;;4825710;29;20827;-86
2023/08/07 09:04:29;;;;;;;4.97;2.17;;;14.50;99.90;;;;;;4825660;29;20181;-88
2023/08/07 09:06:54;;;;;;;13.83;3.57;;;14.40;99.90;;;;;;4824813;29;20425;-85
2023/08/07 09:09:24;;;;;;;8.13;2.87;;;14.40;99.90;;;;;;4825245;29;20182;-85
2023/08/07 09:11:51;;;;;;;4.10;2.27;;;14.40;99.90;;;;;;4805441;29;20451;-85
2023/08/07 09:14:20;;;;;;;6.40;3.13;;;14.40;99.90;;;;;;4806567;29;20475;-84
2023/08/07 09:16:48;;;;;;;6.93;3.00;;;14.30;99.90;;;;;;4808515;29;20430;-84
2023/08/07 09:19:14;;;;;;;10.93;3.53;;;14.20;99.90;;;;;;4815630;29;20437;-85
2023/08/07 09:21:40;;;;;;;6.03;2.50;;;14.00;99.90;;;;;;4827799;29;20427;-83
2023/08/07 09:24:05;;;;;;;7.57;2.70;;;13.90;99.90;;;;;;4829978;29;20182;-87
2023/08/07 09:26:33;;;;;;;9.80;2.87;;;13.90;99.90;;;;;;4846901;29;20402;-86
2023/08/07 09:28:59;;;;;;;7.00;3.30;;;13.90;99.90;;;;;;4846382;29;20193;-85
2023/08/07 09:31:26;;;;;;;6.90;3.00;;;13.90;99.90;;;;;;4846445;29;20402;-86
2023/08/07 09:33:52;;;;;;;7.90;3.03;;;14.00;99.90;;;;;;4846131;29;20469;-84
2023/08/07 09:36:18;;;;;;;12.93;3.37;;;14.00;99.90;;;;;;4846051;29;20430;-85
2023/08/07 09:38:49;;;;;;;8.77;2.73;;;14.00;99.90;;;;;;4845831;29;20440;-87
2023/08/07 09:41:17;;;;;;;11.97;3.17;;;14.00;99.90;;;;;;4829916;29;20425;-86
2023/08/07 09:43:43;;;;;;;6.57;3.53;;;14.10;99.90;;;;;;4846212;29;20421;-85
2023/08/07 09:46:09;;;;;;;8.10;3.33;;;14.10;99.90;;;;;;4829389;29;20425;-83
2023/08/07 09:48:42;;;;;;;6.67;2.80;;;14.60;99.90;;;;;;4845913;29;20257;-85
2023/08/07 09:51:08;;;;;;;6.93;2.90;;;14.90;99.90;;;;;;4829202;29;20219;-84
2023/08/07 09:53:33;;;;;;;5.40;2.73;;;15.00;99.90;;;;;;4829103;29;20977;-84
2023/08/07 09:56:00;;;;;;;6.30;2.70;;;15.10;99.90;;;;;;4845929;29;20191;-84
2023/08/07 09:58:26;;;;;;;6.80;3.50;;;15.30;99.90;;;;;;4846561;29;20516;-84
2023/08/07 10:00:53;;;;;;;3.47;2.20;;;15.50;99.90;;;;;;4846201;29;20421;-84
2023/08/07 10:03:19;;;;;;;11.17;2.80;;;15.60;99.90;;;;;;4845688;29;20222;-84
2023/08/07 10:05:45;;;;;;;6.30;2.30;;;16.00;99.90;;;;;;4845118;29;20478;-84
2023/08/07 10:08:12;;;;;;;5.60;2.53;;;16.30;99.90;;;;;;4848885;29;20422;-85
2023/08/07 10:10:38;;;;;;;8.53;3.07;;;16.60;99.90;;;;;;4845261;29;20873;-86
2023/08/07 10:13:05;;;;;;;11.73;2.57;;;17.30;99.90;;;;;;4828640;29;20459;-83
2023/08/07 10:15:34;;;;;;;4.30;1.90;;;17.40;99.90;;;;;;4845238;29;20429;-86
2023/08/07 10:18:00;;;;;;;3.50;2.00;;;17.40;99.90;;;;;;4829016;29;20455;-82
2023/08/07 10:20:28;;;;;;;6.93;2.40;;;17.60;99.90;;;;;;4828638;29;20619;-84
2023/08/07 10:23:00;;;;;;;7.00;2.17;;;17.60;99.90;;;;;;4844892;29;20188;-84
2023/08/07 10:25:28;;;;;;;3.50;1.77;;;18.00;99.90;;;;;;4845080;29;20461;-86
2023/08/07 10:27:57;;;;;;;5.30;2.50;;;18.20;99.90;;;;;;4827197;29;21072;-85
2023/08/07 10:30:24;;;;;;;4.80;1.73;;;18.60;99.90;;;;;;4845347;29;20410;-86
2023/08/07 10:32:50;;;;;;;5.13;2.10;;;18.50;99.90;;;;;;4827805;29;20440;-83
2023/08/07 10:35:29;;;;;;;4.33;1.70;;;18.70;99.90;;;;;;4845312;29;20393;-86
2023/08/07 10:37:54;;;;;;;7.23;2.07;;;18.80;99.90;;;;;;4844867;29;20946;-89
2023/08/07 10:40:21;;;;;;;4.40;1.67;;;19.30;99.90;;;;;;4844609;29;20420;-83
2023/08/07 10:42:58;;;;;;;9.40;2.27;;;18.80;99.90;;;;;;4844406;29;20192;-87
2023/08/07 10:45:24;;;;;;;10.37;1.80;;;18.20;99.90;;;;;;4844531;29;20414;-87
2023/08/07 10:48:11;;;;;;;6.90;1.57;;;18.00;99.90;;;;;;4844885;29;20487;-86
2023/08/07 10:50:53;;;;;;;7.50;2.30;;;17.60;99.90;;;;;;4844321;29;20429;-87
2023/08/07 10:53:20;;;;;;;5.53;2.20;;;17.30;99.90;;;;;;4844743;29;20535;-88
2023/08/07 10:55:47;;;;;;;5.40;2.10;;;17.60;99.90;;;;;;4813476;29;20761;-91
2023/08/07 10:58:30;;;;;;;4.83;2.10;;;18.00;99.90;;;;;;4827752;29;20434;-85
2023/08/07 11:01:26;;;;;;;5.47;2.40;;;18.30;99.90;;;;;;4827778;29;20514;-86
2023/08/07 11:04:00;;;;;;;7.27;1.80;;;18.50;99.90;;;;;;4844327;29;20861;-87
2023/08/07 11:06:31;;;;;;;10.90;2.77;;;18.60;99.90;;;;;;4844563;29;20422;-85
2023/08/07 11:08:57;;;;;;;6.20;2.73;;;18.40;99.90;;;;;;4843762;29;20425;-82
2023/08/07 11:11:23;;;;;;;5.90;1.93;;;18.00;99.90;;;;;;4844474;29;20479;-86
2023/08/07 11:13:49;;;;;;;7.20;2.20;;;17.60;99.90;;;;;;4843943;29;20469;-85
2023/08/07 11:16:15;;;;;;;7.10;1.70;;;18.00;99.90;;;;;;4843931;29;20437;-88
2023/08/07 11:18:42;;;;;;;6.10;1.80;;;18.70;99.90;;;;;;4826923;29;20189;-87
2023/08/07 11:21:11;;;;;;;8.70;2.00;;;18.90;99.90;;;;;;4843692;29;20191;-88
2023/08/07 11:23:38;;;;;;;3.63;1.87;;;19.50;99.90;;;;;;4844354;29;20501;-82
2023/08/07 11:26:03;;;;;;;3.77;1.90;;;19.20;99.90;;;;;;4843970;29;20954;-88
2023/08/07 11:28:29;;;;;;;2.93;1.60;;;19.60;99.90;;;;;;4843890;29;20396;-82
2023/08/07 11:30:56;;;;;;;5.00;2.30;;;20.00;99.90;;;;;;4843291;29;20600;-84
2023/08/07 11:33:24;;;;;;;5.90;2.10;;;19.60;99.90;;;;;;4843542;29;20304;-85
2023/08/07 11:35:50;;;;;;;10.50;2.00;;;19.10;99.90;;;;;;4843321;29;20408;-84
2023/08/07 11:38:36;;;;;;;5.17;1.83;;;19.50;99.90;;;;;;4843443;29;20480;-82
2023/08/07 11:41:07;;;;;;;3.60;1.63;;;20.00;99.90;;;;;;4842910;29;20391;-85
2023/08/07 11:43:34;;;;;;;3.97;1.90;;;20.40;99.90;;;;;;4827291;29;20430;-86
2023/08/07 11:46:04;;;;;;;5.60;1.70;;;19.50;99.90;;;;;;4843691;29;20403;-86
2023/08/07 11:48:32;;;;;;;3.77;2.17;;;19.90;99.90;;;;;;4843500;29;20463;-82
2023/08/07 11:50:59;;;;;;;5.57;2.00;;;20.10;99.90;;;;;;4843134;29;20742;-84
2023/08/07 11:53:26;;;;;;;3.57;1.90;;;19.70;99.90;;;;;;4843638;29;20560;-82
2023/08/07 11:55:53;;;;;;;2.10;1.40;;;19.60;99.90;;;;;;4843155;29;20404;-85
2023/08/07 11:58:19;;;;;;;5.23;2.07;;;19.90;99.90;;;;;;4827258;29;20818;-82
2023/08/07 12:00:46;;;;;;;2.20;1.63;;;20.40;99.90;;;;;;4843627;29;20418;-84
2023/08/07 12:03:26;;;;;;;3.43;1.70;;;20.30;99.90;;;;;;4827077;29;20423;-86
2023/08/07 12:05:53;;;;;;;2.57;1.80;;;20.20;99.90;;;;;;4811927;29;20433;-84
2023/08/07 12:08:19;;;;;;;5.83;2.00;;;20.50;99.90;;;;;;4843213;29;20504;-83
2023/08/07 12:10:48;;;;;;;3.20;1.93;;;20.80;99.90;;;;;;4842852;29;20921;-85
2023/08/07 12:13:13;;;;;;;5.30;2.50;;;21.20;99.90;;;;;;4826615;29;20444;-80
2023/08/07 12:15:39;;;;;;;6.83;2.40;;;21.00;99.90;;;;;;4842705;29;20900;-82
2023/08/07 12:18:07;;;;;;;2.70;1.60;;;20.70;99.90;;;;;;4810668;29;20200;-84
2023/08/07 12:20:33;;;;;;;3.30;2.17;;;20.00;99.90;;;;;;4843091;29;20185;-84
2023/08/07 12:22:58;;;;;;;4.87;1.50;;;20.10;99.90;;;;;;4842503;29;20401;-84
2023/08/07 12:25:24;;;;;;;7.63;1.70;;;19.90;99.90;;;;;;4842767;29;20259;-85
2023/08/07 12:27:49;;;;;;;3.53;1.83;;;19.70;99.90;;;;;;4842293;29;20215;-83
2023/08/07 12:30:15;;;;;;;4.13;1.70;;;19.40;99.90;;;;;;4843175;29;20173;-83
2023/08/07 12:32:41;;;;;;;3.50;1.70;;;19.40;99.90;;;;;;4826061;29;20188;-84
2023/08/07 12:35:09;;;;;;;5.60;2.00;;;19.60;99.90;;;;;;4842956;29;20497;-81
2023/08/07 12:37:35;;;;;;;4.60;2.10;;;19.70;99.90;;;;;;4842477;29;20185;-83
2023/08/07 12:40:01;;;;;;;3.53;2.03;;;20.00;99.90;;;;;;4842556;29;20424;-84